sensor_id;sensor_type;location;lat;lon;timestamp;P1;durP1;ratioP1;P2;durP2;ratioP2
50954;SDS011;36966;48.064;-0.792;2022-11-20T00:01:03;5.68;;;2.72;;
50954;SDS011;36966;48.064;-0.792;2022-11-20T00:03:26;7.63;;;2.42;;
50954;SDS011;36966;48.064;-0.792;2022-11-20T00:05:46;5.47;;;2.92;;
50954;SDS011;36966;48.064;-0.792;2022-11-20T00:08:05;8.65;;;2.70;;
50954;SDS011;36966;48.064;-0.792;2022-11-20T00:10:24;5.18;;;2.83;;
50954;SDS011;36966;48.064;-0.792;2022-11-20T00:12:43;5.88;;;2.15;;
50954;SDS011;36966;48.064;-0.792;2022-11-20T00:15:03;6.28;;;2.33;;
50954;SDS011;36966;48.064;-0.792;2022-11-20T00:17:23;7.07;;;2.50;;
50954;SDS011;36966;48.064;-0.792;2022-11-20T00:19:42;6.95;;;1.92;;
50954;SDS011;36966;48.064;-0.792;2022-11-20T00:22:01;9.18;;;1.80;;
50954;SDS011;36966;48.064;-0.792;2022-11-20T00:24:20;7.60;;;2.45;;
50954;SDS011;36966;48.064;-0.792;2022-11-20T00:26:40;4.28;;;1.83;;
50954;SDS011;36966;48.064;-0.792;2022-11-20T00:29:00;6.38;;;2.20;;
50954;SDS011;36966;48.064;-0.792;2022-11-20T00:31:19;6.30;;;2.33;;
50954;SDS011;36966;48.064;-0.792;2022-11-20T00:33:39;6.80;;;1.85;;
50954;SDS011;36966;48.064;-0.792;2022-11-20T00:36:00;6.22;;;2.40;;
50954;SDS011;36966;48.064;-0.792;2022-11-20T00:38:23;5.18;;;2.15;;
50954;SDS011;36966;48.064;-0.792;2022-11-20T00:40:43;5.30;;;1.90;;
50954;SDS011;36966;48.064;-0.792;2022-11-20T00:43:02;9.73;;;1.65;;
50954;SDS011;36966;48.064;-0.792;2022-11-20T00:45:21;5.07;;;2.13;;
50954;SDS011;36966;48.064;-0.792;2022-11-20T00:47:40;5.53;;;1.85;;
50954;SDS011;36966;48.064;-0.792;2022-11-20T00:49:59;6.47;;;1.95;;
50954;SDS011;36966;48.064;-0.792;2022-11-20T00:52:18;4.15;;;1.92;;
50954;SDS011;36966;48.064;-0.792;2022-11-20T00:54:37;6.28;;;2.28;;
50954;SDS011;36966;48.064;-0.792;2022-11-20T00:56:56;4.80;;;2.33;;
50954;SDS011;36966;48.064;-0.792;2022-11-20T00:59:16;3.92;;;1.73;;
50954;SDS011;36966;48.064;-0.792;2022-11-20T01:01:35;5.70;;;2.03;;
50954;SDS011;36966;48.064;-0.792;2022-11-20T01:03:56;6.45;;;1.92;;
50954;SDS011;36966;48.064;-0.792;2022-11-20T01:06:18;6.15;;;1.70;;
50954;SDS011;36966;48.064;-0.792;2022-11-20T01:08:39;5.53;;;2.03;;
50954;SDS011;36966;48.064;-0.792;2022-11-20T01:10:59;10.98;;;2.13;;
50954;SDS011;36966;48.064;-0.792;2022-11-20T01:13:20;4.82;;;2.17;;
50954;SDS011;36966;48.064;-0.792;2022-11-20T01:16:01;6.03;;;1.88;;
50954;SDS011;36966;48.064;-0.792;2022-11-20T01:18:25;7.82;;;2.72;;
50954;SDS011;36966;48.064;-0.792;2022-11-20T01:20:44;9.25;;;2.28;;
50954;SDS011;36966;48.064;-0.792;2022-11-20T01:23:03;3.42;;;2.00;;
50954;SDS011;36966;48.064;-0.792;2022-11-20T01:25:22;8.07;;;2.70;;
50954;SDS011;36966;48.064;-0.792;2022-11-20T01:27:41;6.07;;;2.03;;
50954;SDS011;36966;48.064;-0.792;2022-11-20T01:30:01;5.10;;;2.38;;
50954;SDS011;36966;48.064;-0.792;2022-11-20T01:32:19;5.80;;;2.42;;
50954;SDS011;36966;48.064;-0.792;2022-11-20T01:34:39;6.18;;;2.97;;
50954;SDS011;36966;48.064;-0.792;2022-11-20T01:36:58;12.75;;;3.20;;
50954;SDS011;36966;48.064;-0.792;2022-11-20T01:39:21;5.00;;;2.15;;
50954;SDS011;36966;48.064;-0.792;2022-11-20T01:41:42;8.10;;;2.55;;
50954;SDS011;36966;48.064;-0.792;2022-11-20T01:44:22;9.13;;;3.30;;
50954;SDS011;36966;48.064;-0.792;2022-11-20T01:47:02;7.60;;;2.15;;
50954;SDS011;36966;48.064;-0.792;2022-11-20T01:51:50;8.07;;;2.28;;
50954;SDS011;36966;48.064;-0.792;2022-11-20T01:54:17;7.53;;;2.90;;
50954;SDS011;36966;48.064;-0.792;2022-11-20T01:56:42;5.97;;;2.75;;
50954;SDS011;36966;48.064;-0.792;2022-11-20T01:59:05;5.03;;;2.40;;
50954;SDS011;36966;48.064;-0.792;2022-11-20T02:01:27;4.50;;;2.25;;
50954;SDS011;36966;48.064;-0.792;2022-11-20T02:03:47;7.78;;;3.05;;
50954;SDS011;36966;48.064;-0.792;2022-11-20T02:06:16;5.90;;;2.13;;
50954;SDS011;36966;48.064;-0.792;2022-11-20T02:08:43;4.70;;;2.13;;
50954;SDS011;36966;48.064;-0.792;2022-11-20T02:11:02;6.63;;;2.45;;
50954;SDS011;36966;48.064;-0.792;2022-11-20T02:13:21;3.78;;;2.38;;
50954;SDS011;36966;48.064;-0.792;2022-11-20T02:16:00;5.05;;;1.85;;
50954;SDS011;36966;48.064;-0.792;2022-11-20T02:18:20;8.68;;;2.78;;
50954;SDS011;36966;48.064;-0.792;2022-11-20T02:20:43;5.15;;;1.83;;
50954;SDS011;36966;48.064;-0.792;2022-11-20T02:25:38;4.20;;;2.22;;
50954;SDS011;36966;48.064;-0.792;2022-11-20T02:28:00;6.22;;;2.17;;
50954;SDS011;36966;48.064;-0.792;2022-11-20T02:30:19;7.47;;;2.58;;
50954;SDS011;36966;48.064;-0.792;2022-11-20T02:32:39;3.42;;;1.98;;
50954;SDS011;36966;48.064;-0.792;2022-11-20T02:35:06;6.63;;;2.20;;
50954;SDS011;36966;48.064;-0.792;2022-11-20T02:37:50;8.55;;;2.45;;
50954;SDS011;36966;48.064;-0.792;2022-11-20T02:40:11;5.43;;;2.65;;
50954;SDS011;36966;48.064;-0.792;2022-11-20T02:42:30;6.78;;;2.00;;
50954;SDS011;36966;48.064;-0.792;2022-11-20T02:44:50;3.67;;;1.83;;
50954;SDS011;36966;48.064;-0.792;2022-11-20T02:47:09;2.65;;;1.33;;
50954;SDS011;36966;48.064;-0.792;2022-11-20T02:49:28;4.40;;;2.03;;
50954;SDS011;36966;48.064;-0.792;2022-11-20T02:51:47;3.80;;;1.80;;
50954;SDS011;36966;48.064;-0.792;2022-11-20T02:54:06;5.72;;;1.95;;
50954;SDS011;36966;48.064;-0.792;2022-11-20T02:56:25;4.43;;;1.92;;
50954;SDS011;36966;48.064;-0.792;2022-11-20T02:58:45;5.43;;;1.98;;
50954;SDS011;36966;48.064;-0.792;2022-11-20T03:01:04;3.63;;;1.73;;
50954;SDS011;36966;48.064;-0.792;2022-11-20T03:03:24;6.03;;;1.73;;
50954;SDS011;36966;48.064;-0.792;2022-11-20T03:05:43;5.32;;;2.20;;
50954;SDS011;36966;48.064;-0.792;2022-11-20T03:08:02;8.48;;;1.98;;
50954;SDS011;36966;48.064;-0.792;2022-11-20T03:10:21;3.67;;;1.80;;
50954;SDS011;36966;48.064;-0.792;2022-11-20T03:12:40;6.57;;;1.60;;
50954;SDS011;36966;48.064;-0.792;2022-11-20T03:14:59;4.80;;;1.70;;
50954;SDS011;36966;48.064;-0.792;2022-11-20T03:17:18;5.13;;;1.67;;
50954;SDS011;36966;48.064;-0.792;2022-11-20T03:19:38;4.07;;;1.85;;
50954;SDS011;36966;48.064;-0.792;2022-11-20T03:21:57;4.43;;;1.33;;
50954;SDS011;36966;48.064;-0.792;2022-11-20T03:24:16;6.10;;;2.00;;
50954;SDS011;36966;48.064;-0.792;2022-11-20T03:26:35;5.65;;;1.65;;
50954;SDS011;36966;48.064;-0.792;2022-11-20T03:28:56;5.90;;;1.60;;
50954;SDS011;36966;48.064;-0.792;2022-11-20T03:31:17;7.47;;;1.55;;
50954;SDS011;36966;48.064;-0.792;2022-11-20T03:33:39;3.38;;;1.13;;
50954;SDS011;36966;48.064;-0.792;2022-11-20T03:36:02;5.18;;;1.48;;
50954;SDS011;36966;48.064;-0.792;2022-11-20T03:38:23;6.22;;;1.45;;
50954;SDS011;36966;48.064;-0.792;2022-11-20T03:40:42;7.70;;;1.48;;
50954;SDS011;36966;48.064;-0.792;2022-11-20T03:43:01;4.38;;;1.70;;
50954;SDS011;36966;48.064;-0.792;2022-11-20T03:45:20;5.32;;;1.58;;
50954;SDS011;36966;48.064;-0.792;2022-11-20T03:47:40;4.78;;;1.67;;
50954;SDS011;36966;48.064;-0.792;2022-11-20T03:49:59;4.10;;;1.40;;
50954;SDS011;36966;48.064;-0.792;2022-11-20T03:52:18;3.40;;;1.30;;
50954;SDS011;36966;48.064;-0.792;2022-11-20T03:54:37;4.78;;;1.90;;
50954;SDS011;36966;48.064;-0.792;2022-11-20T03:56:56;7.57;;;1.63;;
50954;SDS011;36966;48.064;-0.792;2022-11-20T03:59:15;3.45;;;1.27;;
50954;SDS011;36966;48.064;-0.792;2022-11-20T04:01:35;8.82;;;1.40;;
50954;SDS011;36966;48.064;-0.792;2022-11-20T04:03:58;4.78;;;1.65;;
50954;SDS011;36966;48.064;-0.792;2022-11-20T04:06:18;3.88;;;0.93;;
50954;SDS011;36966;48.064;-0.792;2022-11-20T04:08:39;4.45;;;1.25;;
50954;SDS011;36966;48.064;-0.792;2022-11-20T04:11:19;6.03;;;1.67;;
50954;SDS011;36966;48.064;-0.792;2022-11-20T04:13:40;3.03;;;1.13;;
50954;SDS011;36966;48.064;-0.792;2022-11-20T04:16:01;4.50;;;1.00;;
50954;SDS011;36966;48.064;-0.792;2022-11-20T04:18:20;3.80;;;1.20;;
50954;SDS011;36966;48.064;-0.792;2022-11-20T04:20:39;6.45;;;1.30;;
50954;SDS011;36966;48.064;-0.792;2022-11-20T04:22:59;2.38;;;0.70;;
50954;SDS011;36966;48.064;-0.792;2022-11-20T04:25:18;4.40;;;0.77;;
50954;SDS011;36966;48.064;-0.792;2022-11-20T04:27:37;3.95;;;1.30;;
50954;SDS011;36966;48.064;-0.792;2022-11-20T04:29:56;6.32;;;1.40;;
50954;SDS011;36966;48.064;-0.792;2022-11-20T04:32:15;7.05;;;1.15;;
50954;SDS011;36966;48.064;-0.792;2022-11-20T04:34:34;3.13;;;0.93;;
50954;SDS011;36966;48.064;-0.792;2022-11-20T04:36:53;1.77;;;0.77;;
50954;SDS011;36966;48.064;-0.792;2022-11-20T04:39:13;6.45;;;1.42;;
50954;SDS011;36966;48.064;-0.792;2022-11-20T04:41:35;5.15;;;0.85;;
50954;SDS011;36966;48.064;-0.792;2022-11-20T04:43:56;5.70;;;1.30;;
50954;SDS011;36966;48.064;-0.792;2022-11-20T04:46:23;9.77;;;1.23;;
50954;SDS011;36966;48.064;-0.792;2022-11-20T04:48:42;4.68;;;1.00;;
50954;SDS011;36966;48.064;-0.792;2022-11-20T04:51:05;3.42;;;1.08;;
50954;SDS011;36966;48.064;-0.792;2022-11-20T04:53:24;4.22;;;1.08;;
50954;SDS011;36966;48.064;-0.792;2022-11-20T04:55:43;4.22;;;1.05;;
50954;SDS011;36966;48.064;-0.792;2022-11-20T04:58:03;3.83;;;1.05;;
50954;SDS011;36966;48.064;-0.792;2022-11-20T05:00:22;4.35;;;1.80;;
50954;SDS011;36966;48.064;-0.792;2022-11-20T05:02:41;2.97;;;0.82;;
50954;SDS011;36966;48.064;-0.792;2022-11-20T05:05:01;1.92;;;0.70;;
50954;SDS011;36966;48.064;-0.792;2022-11-20T05:07:20;3.63;;;0.90;;
50954;SDS011;36966;48.064;-0.792;2022-11-20T05:09:39;6.35;;;0.68;;
50954;SDS011;36966;48.064;-0.792;2022-11-20T05:11:58;4.15;;;1.67;;
50954;SDS011;36966;48.064;-0.792;2022-11-20T05:14:17;1.65;;;0.88;;
50954;SDS011;36966;48.064;-0.792;2022-11-20T05:16:36;4.70;;;1.10;;
50954;SDS011;36966;48.064;-0.792;2022-11-20T05:18:55;4.20;;;0.73;;
50954;SDS011;36966;48.064;-0.792;2022-11-20T05:21:15;5.32;;;0.98;;
50954;SDS011;36966;48.064;-0.792;2022-11-20T05:23:35;3.33;;;0.70;;
50954;SDS011;36966;48.064;-0.792;2022-11-20T05:25:55;4.45;;;0.82;;
50954;SDS011;36966;48.064;-0.792;2022-11-20T05:28:15;3.55;;;0.80;;
50954;SDS011;36966;48.064;-0.792;2022-11-20T05:30:34;3.75;;;0.80;;
50954;SDS011;36966;48.064;-0.792;2022-11-20T05:32:53;2.13;;;0.80;;
50954;SDS011;36966;48.064;-0.792;2022-11-20T05:35:12;3.92;;;0.60;;
50954;SDS011;36966;48.064;-0.792;2022-11-20T05:37:31;5.25;;;0.90;;
50954;SDS011;36966;48.064;-0.792;2022-11-20T05:39:51;1.38;;;0.75;;
50954;SDS011;36966;48.064;-0.792;2022-11-20T05:42:10;2.33;;;0.50;;
50954;SDS011;36966;48.064;-0.792;2022-11-20T05:44:48;4.10;;;0.60;;
50954;SDS011;36966;48.064;-0.792;2022-11-20T05:47:07;4.75;;;0.73;;
50954;SDS011;36966;48.064;-0.792;2022-11-20T05:49:26;3.10;;;0.70;;
50954;SDS011;36966;48.064;-0.792;2022-11-20T05:51:45;2.10;;;0.70;;
50954;SDS011;36966;48.064;-0.792;2022-11-20T05:54:04;3.20;;;0.70;;
50954;SDS011;36966;48.064;-0.792;2022-11-20T05:56:23;2.42;;;1.00;;
50954;SDS011;36966;48.064;-0.792;2022-11-20T05:58:42;4.18;;;0.73;;
50954;SDS011;36966;48.064;-0.792;2022-11-20T06:01:12;2.88;;;0.60;;
50954;SDS011;36966;48.064;-0.792;2022-11-20T06:03:37;4.93;;;0.88;;
50954;SDS011;36966;48.064;-0.792;2022-11-20T06:05:58;1.70;;;0.60;;
50954;SDS011;36966;48.064;-0.792;2022-11-20T06:08:18;1.90;;;0.50;;
50954;SDS011;36966;48.064;-0.792;2022-11-20T06:10:37;4.97;;;1.10;;
50954;SDS011;36966;48.064;-0.792;2022-11-20T06:12:57;4.20;;;0.70;;
50954;SDS011;36966;48.064;-0.792;2022-11-20T06:15:17;7.82;;;0.93;;
50954;SDS011;36966;48.064;-0.792;2022-11-20T06:17:36;2.83;;;0.50;;
50954;SDS011;36966;48.064;-0.792;2022-11-20T06:19:55;2.55;;;1.20;;
50954;SDS011;36966;48.064;-0.792;2022-11-20T06:22:14;4.32;;;0.60;;
50954;SDS011;36966;48.064;-0.792;2022-11-20T06:24:33;3.88;;;0.70;;
50954;SDS011;36966;48.064;-0.792;2022-11-20T06:26:52;4.93;;;0.52;;
50954;SDS011;36966;48.064;-0.792;2022-11-20T06:29:11;1.00;;;0.40;;
50954;SDS011;36966;48.064;-0.792;2022-11-20T06:31:31;3.42;;;0.63;;
50954;SDS011;36966;48.064;-0.792;2022-11-20T06:33:53;4.85;;;0.70;;
50954;SDS011;36966;48.064;-0.792;2022-11-20T06:36:13;3.00;;;0.60;;
50954;SDS011;36966;48.064;-0.792;2022-11-20T06:38:34;3.72;;;0.82;;
50954;SDS011;36966;48.064;-0.792;2022-11-20T06:40:53;4.22;;;1.35;;
50954;SDS011;36966;48.064;-0.792;2022-11-20T06:43:13;2.90;;;0.80;;
50954;SDS011;36966;48.064;-0.792;2022-11-20T06:45:32;3.00;;;0.73;;
50954;SDS011;36966;48.064;-0.792;2022-11-20T06:47:51;3.42;;;1.45;;
50954;SDS011;36966;48.064;-0.792;2022-11-20T06:50:11;2.50;;;0.60;;
50954;SDS011;36966;48.064;-0.792;2022-11-20T06:52:30;2.28;;;0.85;;
50954;SDS011;36966;48.064;-0.792;2022-11-20T06:54:49;3.92;;;0.80;;
50954;SDS011;36966;48.064;-0.792;2022-11-20T06:57:08;3.70;;;0.50;;
50954;SDS011;36966;48.064;-0.792;2022-11-20T06:59:27;3.38;;;0.90;;
50954;SDS011;36966;48.064;-0.792;2022-11-20T07:01:46;2.55;;;0.77;;
50954;SDS011;36966;48.064;-0.792;2022-11-20T07:04:05;2.63;;;0.60;;
50954;SDS011;36966;48.064;-0.792;2022-11-20T07:06:24;3.47;;;0.70;;
50954;SDS011;36966;48.064;-0.792;2022-11-20T07:08:44;1.40;;;0.47;;
50954;SDS011;36966;48.064;-0.792;2022-11-20T07:11:04;2.80;;;0.60;;
50954;SDS011;36966;48.064;-0.792;2022-11-20T07:13:24;1.55;;;0.40;;
50954;SDS011;36966;48.064;-0.792;2022-11-20T07:15:44;1.33;;;0.40;;
50954;SDS011;36966;48.064;-0.792;2022-11-20T07:18:03;2.05;;;0.57;;
50954;SDS011;36966;48.064;-0.792;2022-11-20T07:20:22;2.40;;;0.35;;
50954;SDS011;36966;48.064;-0.792;2022-11-20T07:22:41;2.60;;;0.68;;
50954;SDS011;36966;48.064;-0.792;2022-11-20T07:25:01;3.60;;;0.57;;
50954;SDS011;36966;48.064;-0.792;2022-11-20T07:27:20;1.40;;;0.47;;
50954;SDS011;36966;48.064;-0.792;2022-11-20T07:29:39;0.82;;;0.47;;
50954;SDS011;36966;48.064;-0.792;2022-11-20T07:31:59;0.98;;;0.50;;
50954;SDS011;36966;48.064;-0.792;2022-11-20T07:34:18;2.17;;;0.30;;
50954;SDS011;36966;48.064;-0.792;2022-11-20T07:36:39;0.50;;;0.20;;
50954;SDS011;36966;48.064;-0.792;2022-11-20T07:38:58;1.98;;;0.50;;
50954;SDS011;36966;48.064;-0.792;2022-11-20T07:41:17;2.15;;;0.43;;
50954;SDS011;36966;48.064;-0.792;2022-11-20T07:43:36;0.82;;;0.30;;
50954;SDS011;36966;48.064;-0.792;2022-11-20T07:45:56;1.08;;;0.32;;
50954;SDS011;36966;48.064;-0.792;2022-11-20T07:48:16;1.58;;;0.30;;
50954;SDS011;36966;48.064;-0.792;2022-11-20T07:50:35;0.85;;;0.32;;
50954;SDS011;36966;48.064;-0.792;2022-11-20T07:53:02;2.65;;;0.65;;
50954;SDS011;36966;48.064;-0.792;2022-11-20T07:55:24;0.43;;;0.30;;
50954;SDS011;36966;48.064;-0.792;2022-11-20T07:57:43;1.33;;;0.32;;
50954;SDS011;36966;48.064;-0.792;2022-11-20T08:00:03;0.70;;;0.30;;
50954;SDS011;36966;48.064;-0.792;2022-11-20T08:02:23;2.33;;;0.50;;
50954;SDS011;36966;48.064;-0.792;2022-11-20T08:04:42;0.50;;;0.30;;
50954;SDS011;36966;48.064;-0.792;2022-11-20T08:07:01;0.85;;;0.30;;
50954;SDS011;36966;48.064;-0.792;2022-11-20T08:09:21;0.22;;;0.20;;
50954;SDS011;36966;48.064;-0.792;2022-11-20T08:11:40;5.03;;;1.88;;
50954;SDS011;36966;48.064;-0.792;2022-11-20T08:14:18;1.45;;;0.90;;
50954;SDS011;36966;48.064;-0.792;2022-11-20T08:16:37;1.90;;;0.60;;
50954;SDS011;36966;48.064;-0.792;2022-11-20T08:18:58;3.85;;;0.80;;
50954;SDS011;36966;48.064;-0.792;2022-11-20T08:21:17;1.65;;;0.50;;
50954;SDS011;36966;48.064;-0.792;2022-11-20T08:23:36;5.00;;;1.42;;
50954;SDS011;36966;48.064;-0.792;2022-11-20T08:25:55;4.05;;;1.13;;
50954;SDS011;36966;48.064;-0.792;2022-11-20T08:28:14;1.08;;;0.60;;
50954;SDS011;36966;48.064;-0.792;2022-11-20T08:30:33;3.70;;;1.00;;
50954;SDS011;36966;48.064;-0.792;2022-11-20T08:32:53;3.10;;;1.48;;
50954;SDS011;36966;48.064;-0.792;2022-11-20T08:35:13;1.95;;;0.80;;
50954;SDS011;36966;48.064;-0.792;2022-11-20T08:37:32;1.75;;;0.70;;
50954;SDS011;36966;48.064;-0.792;2022-11-20T08:39:51;1.42;;;0.70;;
50954;SDS011;36966;48.064;-0.792;2022-11-20T08:42:12;1.73;;;0.63;;
50954;SDS011;36966;48.064;-0.792;2022-11-20T08:44:31;0.85;;;0.60;;
50954;SDS011;36966;48.064;-0.792;2022-11-20T08:46:51;3.03;;;0.50;;
50954;SDS011;36966;48.064;-0.792;2022-11-20T08:49:10;1.58;;;0.60;;
50954;SDS011;36966;48.064;-0.792;2022-11-20T08:51:31;1.10;;;0.57;;
50954;SDS011;36966;48.064;-0.792;2022-11-20T08:53:51;1.02;;;0.55;;
50954;SDS011;36966;48.064;-0.792;2022-11-20T08:56:10;2.30;;;0.57;;
50954;SDS011;36966;48.064;-0.792;2022-11-20T08:58:30;4.50;;;1.60;;
50954;SDS011;36966;48.064;-0.792;2022-11-20T09:00:49;2.42;;;0.80;;
50954;SDS011;36966;48.064;-0.792;2022-11-20T09:03:08;2.00;;;0.52;;
50954;SDS011;36966;48.064;-0.792;2022-11-20T09:05:28;1.70;;;0.93;;
50954;SDS011;36966;48.064;-0.792;2022-11-20T09:07:47;3.95;;;1.33;;
50954;SDS011;36966;48.064;-0.792;2022-11-20T09:10:06;3.33;;;1.70;;
50954;SDS011;36966;48.064;-0.792;2022-11-20T09:12:26;2.80;;;1.30;;
50954;SDS011;36966;48.064;-0.792;2022-11-20T09:14:46;2.40;;;0.52;;
50954;SDS011;36966;48.064;-0.792;2022-11-20T09:17:05;1.20;;;0.55;;
50954;SDS011;36966;48.064;-0.792;2022-11-20T09:19:26;2.50;;;1.25;;
50954;SDS011;36966;48.064;-0.792;2022-11-20T09:21:45;3.50;;;1.10;;
50954;SDS011;36966;48.064;-0.792;2022-11-20T09:24:04;2.08;;;0.75;;
50954;SDS011;36966;48.064;-0.792;2022-11-20T09:26:24;4.53;;;0.80;;
50954;SDS011;36966;48.064;-0.792;2022-11-20T09:28:43;3.25;;;0.80;;
50954;SDS011;36966;48.064;-0.792;2022-11-20T09:31:15;1.73;;;1.17;;
50954;SDS011;36966;48.064;-0.792;2022-11-20T09:33:40;1.92;;;0.98;;
50954;SDS011;36966;48.064;-0.792;2022-11-20T09:35:59;2.53;;;1.42;;
50954;SDS011;36966;48.064;-0.792;2022-11-20T09:38:18;0.93;;;0.68;;
50954;SDS011;36966;48.064;-0.792;2022-11-20T09:40:38;2.95;;;0.80;;
50954;SDS011;36966;48.064;-0.792;2022-11-20T09:53:41;1.27;;;0.50;;
50954;SDS011;36966;48.064;-0.792;2022-11-20T09:56:16;1.48;;;0.40;;
50954;SDS011;36966;48.064;-0.792;2022-11-20T09:58:50;3.20;;;0.50;;
50954;SDS011;36966;48.064;-0.792;2022-11-20T10:01:14;2.13;;;0.95;;
50954;SDS011;36966;48.064;-0.792;2022-11-20T10:03:39;3.75;;;0.60;;
50954;SDS011;36966;48.064;-0.792;2022-11-20T10:06:11;3.45;;;1.05;;
50954;SDS011;36966;48.064;-0.792;2022-11-20T10:08:42;2.78;;;0.63;;
50954;SDS011;36966;48.064;-0.792;2022-11-20T10:11:46;4.45;;;1.38;;
50954;SDS011;36966;48.064;-0.792;2022-11-20T10:16:54;5.40;;;0.82;;
50954;SDS011;36966;48.064;-0.792;2022-11-20T10:25:18;6.75;;;1.90;;
50954;SDS011;36966;48.064;-0.792;2022-11-20T10:30:27;6.85;;;1.38;;
50954;SDS011;36966;48.064;-0.792;2022-11-20T10:32:50;6.35;;;0.90;;
50954;SDS011;36966;48.064;-0.792;2022-11-20T10:37:32;9.63;;;2.92;;
50954;SDS011;36966;48.064;-0.792;2022-11-20T10:39:56;17.45;;;2.97;;
50954;SDS011;36966;48.064;-0.792;2022-11-20T10:42:22;10.02;;;1.30;;
50954;SDS011;36966;48.064;-0.792;2022-11-20T10:47:48;8.60;;;2.97;;
50954;SDS011;36966;48.064;-0.792;2022-11-20T10:50:09;8.63;;;1.48;;
50954;SDS011;36966;48.064;-0.792;2022-11-20T10:52:37;9.70;;;1.35;;
50954;SDS011;36966;48.064;-0.792;2022-11-20T11:00:30;7.15;;;1.67;;
50954;SDS011;36966;48.064;-0.792;2022-11-20T11:02:50;6.78;;;1.10;;
50954;SDS011;36966;48.064;-0.792;2022-11-20T11:08:17;11.95;;;2.30;;
50954;SDS011;36966;48.064;-0.792;2022-11-20T11:13:19;16.88;;;2.67;;
50954;SDS011;36966;48.064;-0.792;2022-11-20T11:15:42;11.63;;;2.58;;
50954;SDS011;36966;48.064;-0.792;2022-11-20T11:18:01;11.35;;;1.90;;
50954;SDS011;36966;48.064;-0.792;2022-11-20T11:20:22;10.95;;;2.80;;
50954;SDS011;36966;48.064;-0.792;2022-11-20T11:22:44;17.65;;;1.83;;
50954;SDS011;36966;48.064;-0.792;2022-11-20T11:25:03;14.60;;;2.13;;
50954;SDS011;36966;48.064;-0.792;2022-11-20T11:27:23;11.70;;;3.10;;
50954;SDS011;36966;48.064;-0.792;2022-11-20T11:29:43;22.05;;;2.50;;
50954;SDS011;36966;48.064;-0.792;2022-11-20T11:32:04;7.70;;;1.98;;
50954;SDS011;36966;48.064;-0.792;2022-11-20T11:34:29;19.85;;;3.67;;
50954;SDS011;36966;48.064;-0.792;2022-11-20T11:36:52;18.63;;;2.20;;
50954;SDS011;36966;48.064;-0.792;2022-11-20T11:39:18;15.10;;;2.20;;
50954;SDS011;36966;48.064;-0.792;2022-11-20T11:41:39;19.70;;;3.40;;
50954;SDS011;36966;48.064;-0.792;2022-11-20T11:44:43;13.88;;;3.13;;
50954;SDS011;36966;48.064;-0.792;2022-11-20T11:47:19;10.65;;;2.72;;
50954;SDS011;36966;48.064;-0.792;2022-11-20T11:49:45;10.27;;;2.22;;
50954;SDS011;36966;48.064;-0.792;2022-11-20T11:54:28;22.13;;;2.88;;
50954;SDS011;36966;48.064;-0.792;2022-11-20T11:56:49;16.23;;;2.72;;
50954;SDS011;36966;48.064;-0.792;2022-11-20T11:59:11;18.17;;;3.10;;
50954;SDS011;36966;48.064;-0.792;2022-11-20T12:01:47;17.35;;;2.97;;
50954;SDS011;36966;48.064;-0.792;2022-11-20T12:04:19;16.42;;;2.10;;
50954;SDS011;36966;48.064;-0.792;2022-11-20T12:06:58;14.85;;;2.15;;
50954;SDS011;36966;48.064;-0.792;2022-11-20T12:09:23;15.75;;;3.28;;
50954;SDS011;36966;48.064;-0.792;2022-11-20T12:11:54;11.18;;;2.85;;
50954;SDS011;36966;48.064;-0.792;2022-11-20T12:14:47;9.52;;;2.05;;
50954;SDS011;36966;48.064;-0.792;2022-11-20T12:17:10;10.88;;;2.33;;
50954;SDS011;36966;48.064;-0.792;2022-11-20T12:19:31;15.85;;;3.38;;
50954;SDS011;36966;48.064;-0.792;2022-11-20T12:24:37;12.82;;;2.15;;
50954;SDS011;36966;48.064;-0.792;2022-11-20T12:29:56;12.43;;;2.55;;
50954;SDS011;36966;48.064;-0.792;2022-11-20T12:39:40;18.60;;;3.60;;
50954;SDS011;36966;48.064;-0.792;2022-11-20T12:51:59;31.15;;;8.70;;
50954;SDS011;36966;48.064;-0.792;2022-11-20T12:56:58;22.02;;;4.78;;
50954;SDS011;36966;48.064;-0.792;2022-11-20T13:01:58;16.77;;;3.42;;
50954;SDS011;36966;48.064;-0.792;2022-11-20T13:05:31;19.88;;;4.53;;
50954;SDS011;36966;48.064;-0.792;2022-11-20T13:07:21;24.05;;;6.82;;
50954;SDS011;36966;48.064;-0.792;2022-11-20T13:09:46;18.73;;;4.05;;
50954;SDS011;36966;48.064;-0.792;2022-11-20T13:14:42;14.63;;;3.28;;
50954;SDS011;36966;48.064;-0.792;2022-11-20T13:17:22;25.58;;;5.93;;
50954;SDS011;36966;48.064;-0.792;2022-11-20T13:19:52;21.27;;;4.57;;
50954;SDS011;36966;48.064;-0.792;2022-11-20T13:22:13;21.73;;;2.92;;
50954;SDS011;36966;48.064;-0.792;2022-11-20T13:24:50;16.20;;;3.67;;
50954;SDS011;36966;48.064;-0.792;2022-11-20T13:29:33;15.88;;;3.03;;
50954;SDS011;36966;48.064;-0.792;2022-11-20T13:32:02;13.93;;;2.35;;
50954;SDS011;36966;48.064;-0.792;2022-11-20T13:34:23;15.35;;;3.58;;
50954;SDS011;36966;48.064;-0.792;2022-11-20T13:36:49;14.63;;;2.35;;
50954;SDS011;36966;48.064;-0.792;2022-11-20T13:39:10;17.90;;;3.60;;
50954;SDS011;36966;48.064;-0.792;2022-11-20T13:41:30;19.73;;;3.58;;
50954;SDS011;36966;48.064;-0.792;2022-11-20T13:43:52;16.43;;;2.47;;
50954;SDS011;36966;48.064;-0.792;2022-11-20T13:46:16;18.23;;;2.88;;
50954;SDS011;36966;48.064;-0.792;2022-11-20T13:48:43;14.07;;;2.35;;
50954;SDS011;36966;48.064;-0.792;2022-11-20T13:56:15;6.22;;;1.95;;
50954;SDS011;36966;48.064;-0.792;2022-11-20T14:01:49;14.85;;;1.85;;
50954;SDS011;36966;48.064;-0.792;2022-11-20T14:04:08;11.02;;;1.35;;
50954;SDS011;36966;48.064;-0.792;2022-11-20T14:06:34;11.48;;;1.75;;
50954;SDS011;36966;48.064;-0.792;2022-11-20T14:08:59;9.52;;;2.53;;
50954;SDS011;36966;48.064;-0.792;2022-11-20T14:11:20;12.55;;;1.90;;
50954;SDS011;36966;48.064;-0.792;2022-11-20T14:13:58;13.02;;;2.33;;
50954;SDS011;36966;48.064;-0.792;2022-11-20T14:16:37;6.97;;;1.60;;
50954;SDS011;36966;48.064;-0.792;2022-11-20T14:19:00;16.63;;;1.92;;
50954;SDS011;36966;48.064;-0.792;2022-11-20T14:21:39;13.50;;;2.67;;
50954;SDS011;36966;48.064;-0.792;2022-11-20T14:24:04;12.15;;;2.13;;
50954;SDS011;36966;48.064;-0.792;2022-11-20T14:26:25;14.35;;;3.17;;
50954;SDS011;36966;48.064;-0.792;2022-11-20T14:28:47;17.60;;;2.45;;
50954;SDS011;36966;48.064;-0.792;2022-11-20T14:31:11;12.32;;;2.08;;
50954;SDS011;36966;48.064;-0.792;2022-11-20T14:33:41;10.25;;;1.80;;
50954;SDS011;36966;48.064;-0.792;2022-11-20T14:36:00;18.30;;;2.55;;
50954;SDS011;36966;48.064;-0.792;2022-11-20T14:38:22;9.10;;;2.60;;
50954;SDS011;36966;48.064;-0.792;2022-11-20T14:40:44;13.20;;;2.58;;
50954;SDS011;36966;48.064;-0.792;2022-11-20T14:43:26;10.43;;;2.00;;
50954;SDS011;36966;48.064;-0.792;2022-11-20T14:45:46;13.88;;;2.17;;
50954;SDS011;36966;48.064;-0.792;2022-11-20T14:48:14;15.60;;;2.28;;
50954;SDS011;36966;48.064;-0.792;2022-11-20T14:50:34;15.80;;;2.03;;
50954;SDS011;36966;48.064;-0.792;2022-11-20T14:52:56;11.13;;;2.50;;
50954;SDS011;36966;48.064;-0.792;2022-11-20T14:55:30;9.20;;;1.80;;
50954;SDS011;36966;48.064;-0.792;2022-11-20T14:57:54;20.50;;;2.08;;
50954;SDS011;36966;48.064;-0.792;2022-11-20T15:00:19;7.80;;;1.40;;
50954;SDS011;36966;48.064;-0.792;2022-11-20T15:02:41;14.30;;;2.97;;
50954;SDS011;36966;48.064;-0.792;2022-11-20T15:05:02;8.20;;;2.42;;
50954;SDS011;36966;48.064;-0.792;2022-11-20T15:07:26;13.93;;;2.20;;
50954;SDS011;36966;48.064;-0.792;2022-11-20T15:10:27;19.48;;;4.45;;
50954;SDS011;36966;48.064;-0.792;2022-11-20T15:12:46;12.98;;;1.88;;
50954;SDS011;36966;48.064;-0.792;2022-11-20T15:15:10;13.48;;;2.38;;
50954;SDS011;36966;48.064;-0.792;2022-11-20T15:17:33;15.35;;;3.75;;
50954;SDS011;36966;48.064;-0.792;2022-11-20T15:19:56;10.25;;;2.55;;
50954;SDS011;36966;48.064;-0.792;2022-11-20T15:22:16;17.30;;;2.72;;
50954;SDS011;36966;48.064;-0.792;2022-11-20T15:24:35;12.70;;;2.78;;
50954;SDS011;36966;48.064;-0.792;2022-11-20T15:26:54;13.80;;;4.03;;
50954;SDS011;36966;48.064;-0.792;2022-11-20T15:29:14;10.30;;;2.78;;